createdAt,value
2022-11-25T00:01:52.536Z,117.85
2022-11-25T00:04:21.304Z,123.35
2022-11-25T00:06:49.561Z,115.97
2022-11-25T00:09:17.851Z,129.80
2022-11-25T00:11:45.985Z,139.23
2022-11-25T00:14:16.328Z,135.55
2022-11-25T00:16:47.955Z,126.55
2022-11-25T00:19:17.831Z,132.50
2022-11-25T00:21:45.752Z,138.45
2022-11-25T00:24:15.658Z,131.27
2022-11-25T00:26:44.140Z,121.95
2022-11-25T00:29:14.005Z,124.47
2022-11-25T00:31:42.438Z,126.05
2022-11-25T00:34:14.112Z,128.45
2022-11-25T00:36:42.873Z,139.90
2022-11-25T00:39:14.374Z,121.90
2022-11-25T00:42:01.824Z,114.72
2022-11-25T00:44:36.294Z,117.15
2022-11-25T00:47:17.013Z,142.73
2022-11-25T00:49:47.986Z,121.25
2022-11-25T00:52:18.747Z,122.22
2022-11-25T00:54:50.074Z,127.70
2022-11-25T00:57:19.907Z,138.68
2022-11-25T00:59:49.421Z,126.38
2022-11-25T01:02:18.277Z,130.20
2022-11-25T01:04:46.926Z,126.65
2022-11-25T01:07:17.716Z,127.97
2022-11-25T01:09:46.333Z,122.53
2022-11-25T01:12:14.797Z,162.07
2022-11-25T01:14:42.647Z,126.10
2022-11-25T01:17:11.332Z,126.68
2022-11-25T01:19:40.829Z,140.73
2022-11-25T01:22:09.789Z,122.97
2022-11-25T01:24:38.141Z,136.00
2022-11-25T01:27:07.083Z,126.60
2022-11-25T01:29:35.612Z,119.50
2022-11-25T01:32:04.395Z,120.18
2022-11-25T01:34:34.833Z,113.75
2022-11-25T01:37:03.279Z,118.30
2022-11-25T01:39:33.111Z,116.55
2022-11-25T01:42:03.043Z,125.03
2022-11-25T01:44:33.179Z,125.90
2022-11-25T01:47:11.885Z,127.68
2022-11-25T01:49:44.913Z,131.15
2022-11-25T01:52:24.595Z,130.30
2022-11-25T01:55:12.124Z,137.20
2022-11-25T01:57:47.645Z,145.07
2022-11-25T02:00:17.069Z,134.05
2022-11-25T02:02:53.753Z,133.68
2022-11-25T02:05:57.650Z,132.85
2022-11-25T02:08:27.310Z,139.98
2022-11-25T02:10:56.297Z,141.02
2022-11-25T02:13:25.334Z,141.55
2022-11-25T02:15:53.286Z,142.95
2022-11-25T02:18:22.344Z,130.57
2022-11-25T02:20:50.305Z,125.55
2022-11-25T02:23:26.171Z,136.13
2022-11-25T02:25:56.029Z,155.25
2022-11-25T02:28:27.539Z,150.20
2022-11-25T02:30:55.456Z,150.23
2022-11-25T02:33:26.794Z,134.18
2022-11-25T02:35:59.900Z,133.30
2022-11-25T02:38:51.950Z,131.25
2022-11-25T02:41:41.951Z,127.22
2022-11-25T02:44:11.042Z,134.40
2022-11-25T02:46:40.430Z,135.88
2022-11-25T02:49:10.156Z,146.23
2022-11-25T02:51:41.335Z,161.75
2022-11-25T02:54:12.010Z,159.70
2022-11-25T02:56:40.684Z,146.77
2022-11-25T02:59:11.184Z,143.23
2022-11-25T03:01:40.006Z,156.80
2022-11-25T03:04:10.592Z,149.57
2022-11-25T03:06:38.301Z,154.07
2022-11-25T03:09:08.649Z,155.82
2022-11-25T03:11:57.671Z,140.95
2022-11-25T03:14:26.566Z,184.50
2022-11-25T03:16:54.617Z,185.23
2022-11-25T03:19:23.171Z,152.07
2022-11-25T03:21:53.103Z,145.52
2022-11-25T03:24:21.674Z,154.45
2022-11-25T03:26:50.949Z,166.23
2022-11-25T03:29:20.064Z,142.60
2022-11-25T03:31:48.222Z,151.27
2022-11-25T03:34:16.629Z,152.82
2022-11-25T03:36:44.469Z,143.65
2022-11-25T03:39:12.761Z,148.23
2022-11-25T03:41:41.179Z,157.50
2022-11-25T03:44:09.515Z,152.52
2022-11-25T03:46:37.664Z,151.57
2022-11-25T03:49:08.410Z,146.30
2022-11-25T03:51:36.250Z,157.80
2022-11-25T03:54:04.862Z,155.80
2022-11-25T03:56:48.511Z,164.20
2022-11-25T03:59:17.014Z,152.15
2022-11-25T04:01:44.834Z,162.50
2022-11-25T04:04:15.523Z,151.60
2022-11-25T04:06:44.039Z,158.82
2022-11-25T04:09:14.516Z,159.52
2022-11-25T04:12:02.171Z,169.65
2022-11-25T04:14:39.424Z,188.23
2022-11-25T04:17:07.515Z,150.75
2022-11-25T04:19:37.452Z,170.65
2022-11-25T04:22:05.280Z,181.88
2022-11-25T04:24:37.717Z,166.65
2022-11-25T04:27:06.365Z,187.38
2022-11-25T04:29:34.790Z,190.60
2022-11-25T04:32:05.496Z,192.80
2022-11-25T04:34:34.522Z,199.20
2022-11-25T04:37:03.361Z,177.82
2022-11-25T04:39:32.260Z,172.35
2022-11-25T04:42:24.610Z,187.25
2022-11-25T04:45:21.030Z,163.80
2022-11-25T04:47:41.220Z,175.77
2022-11-25T04:50:18.826Z,169.27
2022-11-25T04:52:57.194Z,159.13
2022-11-25T04:55:25.843Z,156.35
2022-11-25T04:57:53.842Z,158.98
2022-11-25T05:00:22.345Z,178.70
2022-11-25T05:02:50.493Z,184.20
2022-11-25T05:05:21.760Z,182.95
2022-11-25T05:07:50.532Z,166.07
2022-11-25T05:10:21.224Z,185.40
2022-11-25T05:12:51.613Z,183.82
2022-11-25T05:15:23.298Z,178.65
2022-11-25T05:17:51.311Z,181.10
2022-11-25T05:20:31.614Z,153.85
2022-11-25T05:22:59.583Z,169.38
2022-11-25T05:25:28.005Z,159.45
2022-11-25T05:28:14.396Z,163.23
2022-11-25T05:30:46.031Z,151.10
2022-11-25T05:33:14.166Z,167.80
2022-11-25T05:35:42.781Z,178.23
2022-11-25T05:38:10.817Z,156.95
2022-11-25T05:40:40.130Z,159.70
2022-11-25T05:43:13.894Z,149.55
2022-11-25T05:45:42.811Z,157.93
2022-11-25T05:48:12.286Z,136.95
2022-11-25T05:50:40.931Z,149.82
2022-11-25T05:53:17.606Z,138.68
2022-11-25T05:55:58.089Z,150.25
2022-11-25T05:58:44.442Z,152.77
2022-11-25T06:01:14.214Z,143.13
2022-11-25T06:03:42.994Z,154.95
2022-11-25T06:06:12.459Z,150.65
2022-11-25T06:08:40.761Z,153.40
2022-11-25T06:11:14.761Z,137.98
2022-11-25T06:13:45.317Z,139.38
2022-11-25T06:16:17.884Z,142.98
2022-11-25T06:18:50.184Z,147.73
2022-11-25T06:21:19.618Z,130.30
2022-11-25T06:23:47.962Z,143.45
2022-11-25T06:26:23.242Z,135.50
2022-11-25T06:28:56.430Z,133.68
2022-11-25T06:31:26.768Z,127.80
2022-11-25T06:34:07.086Z,119.05
2022-11-25T06:36:35.741Z,135.55
2022-11-25T06:39:09.181Z,117.10
2022-11-25T06:41:41.973Z,99.25
2022-11-25T06:44:09.852Z,122.18
2022-11-25T06:46:37.891Z,162.68
2022-11-25T06:49:06.200Z,128.68
2022-11-25T06:51:34.533Z,149.65
2022-11-25T06:54:02.783Z,139.13
2022-11-25T06:56:31.390Z,131.32
2022-11-25T06:58:59.525Z,134.10
2022-11-25T07:01:30.097Z,124.88
2022-11-25T07:04:05.636Z,114.07
2022-11-25T07:06:34.298Z,101.97
2022-11-25T07:09:02.503Z,112.90
2022-11-25T07:11:33.182Z,104.30
2022-11-25T07:14:03.510Z,112.03
2022-11-25T07:16:32.991Z,114.80
2022-11-25T07:19:05.478Z,112.10
2022-11-25T07:21:36.431Z,111.40
2022-11-25T07:24:06.912Z,105.63
2022-11-25T07:26:38.692Z,109.50
2022-11-25T07:29:23.534Z,112.78
2022-11-25T07:31:57.591Z,93.30
2022-11-25T07:34:25.762Z,101.07
2022-11-25T07:36:53.958Z,106.55
2022-11-25T07:39:23.920Z,93.63
2022-11-25T07:41:54.760Z,99.55
2022-11-25T07:44:23.074Z,92.18
2022-11-25T07:46:54.861Z,101.18
2022-11-25T07:49:27.554Z,99.45
2022-11-25T07:51:59.910Z,100.85
2022-11-25T07:54:28.202Z,97.03
2022-11-25T07:56:56.969Z,102.75
2022-11-25T07:59:25.565Z,96.53
2022-11-25T08:01:55.649Z,97.05
2022-11-25T08:04:24.299Z,102.70
2022-11-25T08:06:55.608Z,81.22
2022-11-25T08:09:24.390Z,92.85
2022-11-25T08:11:53.216Z,95.18
2022-11-25T08:14:21.847Z,89.50
2022-11-25T08:16:50.299Z,101.30
2022-11-25T08:19:18.887Z,82.88
2022-11-25T08:21:50.437Z,89.05
2022-11-25T08:24:21.313Z,91.72
2022-11-25T08:26:49.915Z,98.53
2022-11-25T08:29:19.511Z,97.18
2022-11-25T08:31:48.190Z,98.22
2022-11-25T08:34:25.686Z,98.57
2022-11-25T08:37:00.291Z,108.63
2022-11-25T08:39:51.093Z,118.18
2022-11-25T08:42:17.417Z,119.25
2022-11-25T08:44:45.556Z,97.60
2022-11-25T08:47:13.980Z,116.47
2022-11-25T08:49:42.126Z,115.10
2022-11-25T08:52:11.250Z,101.80
2022-11-25T08:54:39.637Z,110.22
2022-11-25T08:57:08.475Z,121.88
2022-11-25T08:59:37.356Z,111.15
2022-11-25T09:02:06.800Z,126.25
2022-11-25T09:04:34.947Z,121.30
2022-11-25T09:07:05.010Z,116.18
2022-11-25T09:09:34.149Z,127.20
2022-11-25T09:12:06.273Z,133.50
2022-11-25T09:14:36.106Z,127.28
2022-11-25T09:17:09.550Z,133.88
2022-11-25T09:19:37.786Z,124.97
2022-11-25T09:22:08.445Z,128.38
2022-11-25T09:24:36.864Z,125.70
2022-11-25T09:27:05.331Z,127.22
2022-11-25T09:29:33.234Z,132.93
2022-11-25T09:32:02.678Z,126.70
2022-11-25T09:34:30.742Z,109.32
2022-11-25T09:36:59.223Z,106.93
2022-11-25T09:39:29.999Z,117.70
2022-11-25T09:42:38.747Z,114.32
2022-11-25T09:45:50.848Z,116.18
2022-11-25T09:48:41.307Z,102.57
2022-11-25T09:51:25.577Z,105.25
2022-11-25T09:53:57.668Z,114.68
2022-11-25T09:56:48.784Z,116.18
2022-11-25T09:59:26.415Z,104.38
2022-11-25T10:01:59.349Z,118.13
2022-11-25T10:04:33.433Z,100.43
2022-11-25T10:07:04.129Z,112.13
2022-11-25T10:09:35.606Z,116.97
2022-11-25T10:12:07.222Z,117.43
2022-11-25T10:14:53.362Z,102.55
2022-11-25T10:17:27.034Z,118.50
2022-11-25T10:20:06.271Z,111.53
2022-11-25T10:22:34.911Z,115.88
2022-11-25T10:25:13.415Z,120.97
2022-11-25T10:27:53.740Z,114.70
2022-11-25T10:30:25.381Z,123.70
2022-11-25T10:33:02.532Z,121.20
2022-11-25T10:35:36.614Z,129.60
2022-11-25T10:38:08.166Z,125.95
2022-11-25T10:40:36.712Z,147.07
2022-11-25T10:43:13.410Z,127.50
2022-11-25T10:45:58.807Z,123.10
2022-11-25T10:49:04.576Z,135.75
2022-11-25T10:51:37.572Z,121.32
2022-11-25T10:54:39.010Z,105.32
2022-11-25T10:57:21.196Z,110.93
2022-11-25T10:59:58.543Z,110.60
2022-11-25T11:02:38.263Z,115.07
2022-11-25T11:05:10.542Z,118.32
2022-11-25T11:07:46.374Z,119.80
2022-11-25T11:10:15.707Z,119.50
2022-11-25T11:13:04.758Z,125.43
2022-11-25T11:15:44.698Z,122.55
2022-11-25T11:18:20.054Z,114.47
2022-11-25T11:20:50.212Z,119.25
2022-11-25T11:23:18.794Z,115.30
2022-11-25T11:26:06.847Z,125.00
2022-11-25T11:28:36.452Z,112.63
2022-11-25T11:31:18.172Z,117.43
2022-11-25T11:34:23.291Z,113.55
2022-11-25T11:37:07.969Z,121.15
2022-11-25T11:40:03.171Z,124.85
2022-11-25T11:43:22.066Z,121.22
2022-11-25T11:46:15.837Z,117.75
2022-11-25T11:49:08.106Z,128.25
2022-11-25T11:51:44.908Z,116.80
2022-11-25T11:54:43.747Z,106.80
2022-11-25T11:57:24.091Z,120.57
2022-11-25T12:00:04.711Z,130.02
2022-11-25T12:02:46.419Z,118.03
2022-11-25T12:05:22.674Z,117.95
2022-11-25T12:08:19.107Z,126.05
2022-11-25T12:11:05.649Z,117.55
2022-11-25T12:14:07.757Z,128.52
2022-11-25T12:16:45.303Z,107.80
2022-11-25T12:19:23.772Z,120.00
2022-11-25T12:21:57.511Z,134.00
2022-11-25T12:24:43.742Z,114.80
2022-11-25T12:27:19.519Z,117.15
2022-11-25T12:30:02.843Z,122.72
2022-11-25T12:35:12.209Z,126.25
2022-11-25T12:37:47.836Z,123.10
2022-11-25T12:40:20.665Z,124.40
2022-11-25T12:42:49.632Z,136.25
2022-11-25T12:45:20.525Z,138.27
2022-11-25T12:47:48.904Z,118.32
2022-11-25T12:50:39.342Z,128.27
2022-11-25T12:53:24.544Z,115.78
2022-11-25T12:55:53.827Z,112.25
2022-11-25T12:58:24.896Z,120.85
2022-11-25T13:01:14.904Z,109.00
2022-11-25T13:04:10.677Z,114.82
2022-11-25T13:07:08.266Z,101.03
2022-11-25T13:10:00.501Z,108.28
2022-11-25T13:12:50.783Z,108.32
2022-11-25T13:15:22.462Z,102.32
2022-11-25T13:17:52.545Z,111.37
2022-11-25T13:20:36.090Z,100.15
2022-11-25T13:23:20.474Z,113.00
2022-11-25T13:25:50.246Z,113.95
2022-11-25T13:28:37.748Z,113.30
2022-11-25T13:31:23.943Z,105.45
2022-11-25T13:33:57.795Z,105.90
2022-11-25T13:36:43.813Z,104.97
2022-11-25T13:39:34.556Z,107.10
2022-11-25T13:42:05.945Z,109.50
2022-11-25T13:44:36.178Z,110.53
2022-11-25T13:47:28.965Z,109.85
2022-11-25T13:50:21.767Z,113.68
2022-11-25T13:53:08.895Z,105.80
2022-11-25T13:55:40.182Z,122.90
2022-11-25T13:58:16.781Z,103.05
2022-11-25T14:00:51.048Z,113.10
2022-11-25T14:03:18.973Z,116.22
2022-11-25T14:06:24.791Z,106.13
2022-11-25T14:08:59.272Z,121.85
2022-11-25T14:11:53.607Z,115.35
2022-11-25T14:14:49.483Z,109.88
2022-11-25T14:18:01.821Z,120.95
2022-11-25T14:20:35.420Z,101.85
2022-11-25T14:23:22.412Z,134.30
2022-11-25T14:26:05.946Z,117.43
2022-11-25T14:28:45.363Z,122.57
2022-11-25T14:31:17.939Z,118.50
2022-11-25T14:33:56.474Z,113.95
2022-11-25T14:36:32.591Z,108.90
2022-11-25T14:39:06.435Z,125.55
2022-11-25T14:41:50.520Z,125.85
2022-11-25T14:44:23.183Z,123.57
2022-11-25T14:46:59.058Z,108.80
2022-11-25T14:52:49.452Z,117.45
2022-11-25T14:55:28.450Z,118.00
2022-11-25T14:57:57.217Z,114.32
2022-11-25T15:00:28.516Z,112.53
2022-11-25T15:03:02.386Z,101.78
2022-11-25T15:05:41.543Z,127.03
2022-11-25T15:08:14.337Z,111.53
2022-11-25T15:10:52.822Z,119.60
2022-11-25T15:13:34.571Z,112.45
2022-11-25T15:16:15.637Z,115.43
2022-11-25T15:18:47.650Z,121.28
2022-11-25T15:21:17.068Z,113.90
2022-11-25T15:23:45.068Z,117.82
2022-11-25T15:26:21.421Z,107.32
2022-11-25T15:28:56.116Z,115.60
2022-11-25T15:31:42.711Z,99.93
2022-11-25T15:34:15.439Z,117.75
2022-11-25T15:36:44.604Z,118.63
2022-11-25T15:39:28.271Z,120.97
2022-11-25T15:42:18.305Z,121.82
2022-11-25T15:45:01.384Z,114.22
2022-11-25T15:47:33.480Z,115.38
2022-11-25T15:50:04.130Z,127.30
2022-11-25T15:52:36.004Z,105.93
2022-11-25T15:55:19.172Z,104.22
2022-11-25T15:57:50.323Z,115.43
2022-11-25T16:00:25.538Z,105.55
2022-11-25T16:02:57.890Z,107.78
2022-11-25T16:05:28.646Z,112.00
2022-11-25T16:07:59.475Z,112.38
2022-11-25T16:10:46.291Z,113.03
2022-11-25T16:13:23.741Z,112.03
2022-11-25T16:16:00.702Z,107.20
2022-11-25T16:18:55.582Z,120.47
2022-11-25T16:21:30.724Z,113.80
2022-11-25T16:24:38.818Z,113.38
2022-11-25T16:27:29.860Z,106.82
2022-11-25T16:30:31.183Z,113.00
2022-11-25T16:32:59.202Z,125.03
2022-11-25T16:35:28.041Z,122.88
2022-11-25T16:37:58.451Z,124.00
2022-11-25T16:40:28.165Z,150.95
2022-11-25T16:42:56.730Z,169.95
2022-11-25T16:45:28.463Z,148.75
2022-11-25T16:47:57.050Z,190.48
2022-11-25T16:50:25.617Z,157.18
2022-11-25T16:52:53.765Z,144.57
2022-11-25T16:55:23.277Z,124.85
2022-11-25T16:57:54.672Z,141.23
2022-11-25T17:00:23.370Z,127.45
2022-11-25T17:02:51.663Z,161.50
2022-11-25T17:05:25.640Z,199.57
2022-11-25T17:07:53.820Z,171.25
2022-11-25T17:10:22.362Z,135.77
2022-11-25T17:12:50.746Z,154.25
2022-11-25T17:15:22.700Z,145.45
2022-11-25T17:17:51.088Z,150.17
2022-11-25T17:20:25.723Z,154.85
2022-11-25T17:22:54.876Z,151.90
2022-11-25T17:25:24.027Z,143.07
2022-11-25T17:27:52.702Z,146.02
2022-11-25T17:30:25.953Z,150.98
2022-11-25T17:32:58.821Z,184.48
2022-11-25T17:35:27.831Z,180.10
2022-11-25T17:38:02.114Z,158.38
2022-11-25T17:40:30.532Z,200.90
2022-11-25T17:42:58.331Z,175.82
2022-11-25T17:45:27.025Z,187.05
2022-11-25T17:47:55.875Z,176.73
2022-11-25T17:50:26.294Z,168.68
2022-11-25T17:52:54.326Z,153.48
2022-11-25T17:55:23.065Z,149.07
2022-11-25T17:57:51.462Z,160.98
2022-11-25T18:00:21.383Z,173.15
2022-11-25T18:02:50.155Z,152.93
2022-11-25T18:05:23.732Z,158.07
2022-11-25T18:07:52.428Z,172.05
2022-11-25T18:10:23.643Z,163.38
2022-11-25T18:12:52.924Z,170.52
2022-11-25T18:15:25.111Z,170.77
2022-11-25T18:18:00.126Z,174.20
2022-11-25T18:20:31.316Z,163.02
2022-11-25T18:22:59.902Z,170.75
2022-11-25T18:25:31.299Z,218.75
2022-11-25T18:28:00.238Z,186.63
2022-11-25T18:30:30.921Z,170.95
2022-11-25T18:32:59.066Z,170.30
2022-11-25T18:35:36.466Z,148.52
2022-11-25T18:38:05.699Z,166.52
2022-11-25T18:40:35.662Z,168.57
2022-11-25T18:43:05.218Z,156.65
2022-11-25T18:45:37.553Z,175.52
2022-11-25T18:48:23.583Z,176.67
2022-11-25T18:50:56.097Z,174.75
2022-11-25T18:53:24.040Z,169.70
2022-11-25T18:55:52.291Z,183.45
2022-11-25T18:58:22.527Z,191.80
2022-11-25T19:00:52.841Z,198.35
2022-11-25T19:03:23.279Z,201.98
2022-11-25T19:05:54.393Z,199.73
2022-11-25T19:08:22.658Z,196.38
2022-11-25T19:10:51.055Z,197.63
2022-11-25T19:13:26.113Z,210.18
2022-11-25T19:15:54.663Z,205.77
2022-11-25T19:18:25.732Z,217.77
2022-11-25T19:20:54.117Z,198.65
2022-11-25T19:23:28.979Z,219.35
2022-11-25T19:26:08.257Z,213.80
2022-11-25T19:28:36.880Z,238.50
2022-11-25T19:31:06.059Z,224.05
2022-11-25T19:33:39.108Z,226.57
2022-11-25T19:36:09.882Z,228.93
2022-11-25T19:38:38.377Z,231.45
2022-11-25T19:41:08.388Z,206.27
2022-11-25T19:43:36.795Z,218.43
2022-11-25T19:46:05.781Z,228.00
2022-11-25T19:48:39.054Z,250.10
2022-11-25T19:51:07.715Z,234.93
2022-11-25T19:53:35.711Z,230.40
2022-11-25T19:56:05.146Z,209.85
2022-11-25T19:58:33.711Z,218.77
2022-11-25T20:01:06.465Z,249.88
2022-11-25T20:03:35.476Z,261.77
2022-11-25T20:06:05.527Z,260.45
2022-11-25T20:08:33.390Z,268.98
2022-11-25T20:11:02.138Z,255.45
2022-11-25T20:13:30.015Z,273.30
2022-11-25T20:15:58.883Z,274.85
2022-11-25T20:18:27.569Z,293.33
2022-11-25T20:21:06.503Z,249.52
2022-11-25T20:23:43.266Z,284.52
2022-11-25T20:26:19.538Z,260.17
2022-11-25T20:28:47.953Z,302.80
2022-11-25T20:31:17.780Z,227.95
2022-11-25T20:33:48.470Z,319.40
2022-11-25T20:36:20.150Z,246.70
2022-11-25T20:38:51.019Z,262.17
2022-11-25T20:41:25.918Z,299.75
2022-11-25T20:43:56.966Z,252.65
2022-11-25T20:46:30.671Z,316.75
2022-11-25T20:49:01.013Z,355.50
2022-11-25T20:51:29.997Z,293.17
2022-11-25T20:54:01.364Z,277.75
2022-11-25T20:56:30.285Z,263.13
2022-11-25T20:58:58.036Z,356.08
2022-11-25T21:01:26.429Z,343.23
2022-11-25T21:03:54.416Z,347.50
2022-11-25T21:06:28.335Z,314.15
2022-11-25T21:08:59.971Z,277.48
2022-11-25T21:11:33.375Z,280.73
2022-11-25T21:14:01.226Z,395.38
2022-11-25T21:16:29.972Z,230.55
2022-11-25T21:18:58.120Z,322.88
2022-11-25T21:21:33.280Z,321.73
2022-11-25T21:24:12.793Z,255.57
2022-11-25T21:26:41.499Z,259.60
2022-11-25T21:29:11.195Z,292.85
2022-11-25T21:31:39.717Z,263.27
2022-11-25T21:34:10.629Z,255.88
2022-11-25T21:36:39.402Z,310.73
2022-11-25T21:39:11.757Z,377.17
2022-11-25T21:41:40.332Z,281.08
2022-11-25T21:44:08.332Z,275.27
2022-11-25T21:46:36.952Z,315.45
2022-11-25T21:49:12.896Z,261.98
2022-11-25T21:51:41.086Z,316.08
2022-11-25T21:54:09.862Z,332.63
2022-11-25T21:56:39.357Z,293.80
2022-11-25T21:59:08.463Z,268.80
2022-11-25T22:01:37.114Z,278.77
2022-11-25T22:04:05.500Z,271.65
2022-11-25T22:06:34.094Z,238.77
2022-11-25T22:09:02.650Z,241.30
2022-11-25T22:11:34.882Z,248.63
2022-11-25T22:14:13.451Z,267.13
2022-11-25T22:16:41.730Z,327.08
2022-11-25T22:19:18.242Z,379.90
2022-11-25T22:21:46.787Z,383.05
2022-11-25T22:24:16.180Z,451.35
2022-11-25T22:26:46.320Z,352.70
2022-11-25T22:29:22.042Z,346.55
2022-11-25T22:31:50.574Z,317.50
2022-11-25T22:34:21.909Z,312.38
2022-11-25T22:36:51.882Z,335.90
2022-11-25T22:39:26.554Z,353.58
2022-11-25T22:42:01.537Z,294.40
2022-11-25T22:44:39.179Z,380.15
2022-11-25T22:47:07.885Z,315.00
2022-11-25T22:49:35.363Z,366.20
2022-11-25T22:52:03.756Z,322.02
2022-11-25T22:54:32.784Z,344.70
2022-11-25T22:57:01.046Z,266.15
2022-11-25T22:59:28.977Z,238.25
2022-11-25T23:01:57.708Z,218.57
2022-11-25T23:04:25.540Z,231.70
2022-11-25T23:06:54.925Z,210.93
2022-11-25T23:09:22.645Z,210.43
2022-11-25T23:11:50.689Z,218.20
2022-11-25T23:14:19.146Z,210.55
2022-11-25T23:16:47.737Z,206.88
2022-11-25T23:19:19.447Z,206.90
2022-11-25T23:21:47.673Z,199.50
2022-11-25T23:24:17.649Z,215.90
2022-11-25T23:29:31.217Z,203.48
2022-11-25T23:32:02.624Z,202.88
2022-11-25T23:34:35.091Z,197.57
2022-11-25T23:37:06.684Z,193.45
2022-11-25T23:39:34.431Z,201.73
2022-11-25T23:42:02.964Z,197.60
2022-11-25T23:44:31.855Z,204.88
2022-11-25T23:47:05.480Z,188.27
2022-11-25T23:49:44.836Z,208.20
2022-11-25T23:52:23.444Z,186.23
2022-11-25T23:54:52.955Z,201.98
2022-11-25T23:57:24.877Z,185.10
2022-11-25T23:59:53.490Z,190.65
